createdAt,value
2018-07-22T00:01:02.680Z,224.40
2018-07-22T00:03:34.073Z,228.62
2018-07-22T00:06:05.336Z,217.53
2018-07-22T00:08:36.691Z,217.93
2018-07-22T00:11:08.323Z,220.20
2018-07-22T00:13:39.484Z,223.22
2018-07-22T00:16:10.935Z,219.70
2018-07-22T00:18:42.067Z,214.48
2018-07-22T00:21:13.499Z,220.17
2018-07-22T00:23:44.540Z,217.93
2018-07-22T00:26:16.263Z,220.48
2018-07-22T00:28:47.374Z,213.07
2018-07-22T00:31:18.805Z,219.53
2018-07-22T00:33:50.540Z,224.10
2018-07-22T00:36:21.554Z,219.62
2018-07-22T00:38:54.074Z,224.75
2018-07-22T00:41:25.092Z,219.18
2018-07-22T00:43:56.319Z,213.30
2018-07-22T00:46:27.701Z,214.20
2018-07-22T00:48:58.662Z,213.40
2018-07-22T00:51:30.083Z,207.65
2018-07-22T00:54:01.425Z,219.95
2018-07-22T00:56:32.427Z,222.10
2018-07-22T00:59:03.621Z,224.67
2018-07-22T01:01:34.785Z,224.73
2018-07-22T01:04:06.371Z,215.40
2018-07-22T01:06:37.702Z,227.90
2018-07-22T01:09:11.293Z,213.20
2018-07-22T01:11:42.615Z,222.37
2018-07-22T01:14:14.085Z,220.33
2018-07-22T01:16:45.547Z,218.15
2018-07-22T01:19:17.131Z,206.10
2018-07-22T01:21:48.673Z,208.05
2018-07-22T01:24:19.643Z,213.18
2018-07-22T01:26:51.006Z,219.00
2018-07-22T01:29:22.336Z,221.30
2018-07-22T01:31:53.628Z,221.87
2018-07-22T01:34:24.465Z,222.80
2018-07-22T01:36:55.402Z,216.27
2018-07-22T01:39:26.484Z,216.78
2018-07-22T01:41:57.741Z,216.80
2018-07-22T01:44:28.817Z,219.45
2018-07-22T01:47:00.209Z,217.93
2018-07-22T01:49:31.604Z,213.97
2018-07-22T01:52:04.118Z,216.25
2018-07-22T01:54:35.280Z,222.10
2018-07-22T01:57:06.176Z,214.80
2018-07-22T01:59:37.300Z,224.73
2018-07-22T02:02:08.938Z,223.82
2018-07-22T02:04:39.906Z,216.70
2018-07-22T02:07:10.920Z,222.20
2018-07-22T02:09:54.476Z,224.02
2018-07-22T02:12:25.294Z,216.93
2018-07-22T02:14:56.288Z,220.10
2018-07-22T02:17:27.227Z,221.53
2018-07-22T02:19:58.230Z,221.15
2018-07-22T02:22:29.151Z,214.55
2018-07-22T02:25:00.131Z,223.20
2018-07-22T02:27:31.828Z,218.78
2018-07-22T02:30:04.377Z,219.75
2018-07-22T02:32:36.031Z,215.90
2018-07-22T02:35:07.179Z,218.07
2018-07-22T02:37:38.479Z,217.50
2018-07-22T02:40:09.355Z,225.47
2018-07-22T02:42:40.544Z,223.40
2018-07-22T02:45:13.273Z,224.95
2018-07-22T02:47:44.990Z,229.40
2018-07-22T02:50:18.843Z,219.75
2018-07-22T02:52:50.116Z,219.50
2018-07-22T02:55:23.160Z,216.70
2018-07-22T02:57:54.188Z,215.60
2018-07-22T03:00:25.164Z,221.70
2018-07-22T03:02:56.191Z,275.68
2018-07-22T03:05:27.370Z,249.52
2018-07-22T03:07:59.605Z,228.20
2018-07-22T03:10:35.564Z,225.50
2018-07-22T03:13:08.370Z,220.48
2018-07-22T03:15:39.456Z,221.13
2018-07-22T03:18:13.388Z,269.02
2018-07-22T03:20:44.515Z,237.27
2018-07-22T03:23:15.500Z,230.57
2018-07-22T03:25:46.680Z,214.32
2018-07-22T03:28:17.616Z,229.97
2018-07-22T03:30:48.517Z,219.87
2018-07-22T03:33:19.496Z,215.90
2018-07-22T03:35:50.435Z,212.85
2018-07-22T03:38:21.663Z,217.47
2018-07-22T03:40:52.694Z,218.52
2018-07-22T03:43:23.798Z,218.90
2018-07-22T03:45:54.696Z,218.33
2018-07-22T03:48:26.445Z,216.10
2018-07-22T03:50:58.957Z,218.60
2018-07-22T03:53:30.350Z,219.93
2018-07-22T03:56:03.064Z,219.25
2018-07-22T03:58:34.034Z,215.85
2018-07-22T04:01:06.351Z,220.33
2018-07-22T04:03:37.316Z,225.65
2018-07-22T04:06:08.343Z,229.55
2018-07-22T04:08:39.411Z,223.90
2018-07-22T04:11:10.399Z,223.82
2018-07-22T04:13:41.386Z,233.23
2018-07-22T04:16:12.376Z,228.62
2018-07-22T04:18:50.394Z,230.15
2018-07-22T04:21:22.504Z,224.85
2018-07-22T04:23:53.404Z,230.10
2018-07-22T04:26:24.538Z,219.43
2018-07-22T04:28:55.675Z,225.90
2018-07-22T04:31:26.670Z,244.45
2018-07-22T04:33:57.655Z,255.90
2018-07-22T04:36:28.644Z,248.05
2018-07-22T04:38:59.511Z,234.72
2018-07-22T04:41:30.521Z,234.72
2018-07-22T04:44:03.364Z,223.65
2018-07-22T04:46:35.838Z,220.37
2018-07-22T04:49:06.929Z,223.78
2018-07-22T04:51:37.883Z,259.90
2018-07-22T04:54:09.378Z,262.63
2018-07-22T04:56:40.457Z,240.52
2018-07-22T04:59:11.455Z,225.10
2018-07-22T05:01:42.426Z,223.50
2018-07-22T05:04:13.569Z,209.72
2018-07-22T05:06:44.675Z,217.47
2018-07-22T05:09:15.686Z,213.12
2018-07-22T05:11:46.783Z,218.80
2018-07-22T05:14:17.798Z,212.78
2018-07-22T05:16:48.933Z,214.95
2018-07-22T05:19:20.238Z,218.33
2018-07-22T05:21:51.298Z,214.00
2018-07-22T05:24:22.234Z,210.38
2018-07-22T05:26:53.093Z,211.68
2018-07-22T05:29:24.118Z,217.95
2018-07-22T05:31:55.069Z,221.47
2018-07-22T05:34:26.057Z,212.25
2018-07-22T05:36:56.970Z,215.18
2018-07-22T05:39:27.882Z,215.40
2018-07-22T05:41:59.396Z,214.45
2018-07-22T05:44:30.788Z,218.50
2018-07-22T05:47:01.720Z,232.62
2018-07-22T05:49:34.037Z,219.45
2018-07-22T05:52:08.688Z,220.05
2018-07-22T05:54:42.929Z,211.03
2018-07-22T05:57:17.362Z,212.72
2018-07-22T05:59:53.232Z,215.72
2018-07-22T06:02:24.251Z,217.28
2018-07-22T06:04:58.482Z,213.57
2018-07-22T06:07:29.978Z,212.72
2018-07-22T06:10:00.882Z,218.10
2018-07-22T06:12:34.235Z,231.07
2018-07-22T06:15:08.895Z,224.20
2018-07-22T06:17:40.003Z,220.75
2018-07-22T06:20:11.095Z,213.47
2018-07-22T06:22:42.379Z,223.25
2018-07-22T06:25:15.863Z,220.63
2018-07-22T06:27:46.854Z,228.30
2018-07-22T06:30:17.895Z,238.00
2018-07-22T06:32:48.818Z,237.30
2018-07-22T06:35:23.275Z,234.07
2018-07-22T06:37:54.354Z,233.87
2018-07-22T06:40:25.390Z,229.78
2018-07-22T06:42:56.563Z,221.95
2018-07-22T06:45:27.811Z,231.87
2018-07-22T06:47:58.917Z,228.95
2018-07-22T06:50:35.390Z,224.77
2018-07-22T06:53:07.949Z,221.87
2018-07-22T06:55:41.831Z,222.85
2018-07-22T06:58:13.308Z,219.97
2018-07-22T07:00:44.527Z,218.27
2018-07-22T07:03:15.598Z,227.47
2018-07-22T07:05:46.727Z,219.87
2018-07-22T07:08:17.792Z,225.20
2018-07-22T07:10:48.875Z,225.70
2018-07-22T07:13:19.896Z,225.43
2018-07-22T07:15:51.093Z,218.65
2018-07-22T07:18:22.190Z,221.68
2018-07-22T07:20:53.438Z,228.85
2018-07-22T07:23:24.468Z,229.28
2018-07-22T07:25:55.741Z,214.35
2018-07-22T07:28:27.067Z,224.32
2018-07-22T07:30:58.071Z,219.90
2018-07-22T07:33:29.175Z,220.33
2018-07-22T07:36:00.300Z,220.22
2018-07-22T07:38:31.537Z,221.53
2018-07-22T07:41:02.852Z,217.45
2018-07-22T07:43:36.471Z,224.88
2018-07-22T07:46:12.254Z,234.92
2018-07-22T07:48:44.835Z,232.18
2018-07-22T07:51:23.266Z,220.12
2018-07-22T07:54:09.803Z,228.90
2018-07-22T07:56:47.693Z,238.47
2018-07-22T07:59:34.925Z,231.05
2018-07-22T08:02:25.734Z,226.62
2018-07-22T08:05:09.286Z,232.43
2018-07-22T08:07:54.020Z,227.32
2018-07-22T08:10:26.011Z,225.85
2018-07-22T08:13:04.073Z,226.10
2018-07-22T08:15:41.423Z,225.53
2018-07-22T08:18:18.041Z,220.75
2018-07-22T08:20:52.073Z,222.40
2018-07-22T08:23:23.323Z,225.45
2018-07-22T08:25:54.247Z,220.17
2018-07-22T08:28:36.202Z,224.00
2018-07-22T08:31:07.848Z,225.82
2018-07-22T08:33:38.966Z,225.60
2018-07-22T08:36:09.903Z,226.22
2018-07-22T08:38:41.285Z,225.87
2018-07-22T08:41:12.241Z,227.87
2018-07-22T08:43:43.689Z,225.75
2018-07-22T08:46:14.973Z,230.18
2018-07-22T08:48:47.124Z,226.90
2018-07-22T08:51:20.259Z,233.65
2018-07-22T08:53:51.284Z,228.22
2018-07-22T08:56:23.483Z,224.30
2018-07-22T08:58:54.443Z,231.87
2018-07-22T09:01:25.524Z,223.90
2018-07-22T09:03:56.587Z,226.60
2018-07-22T09:06:28.122Z,231.47
2018-07-22T09:08:59.989Z,243.82
2018-07-22T09:11:31.216Z,231.90
2018-07-22T09:14:02.220Z,223.22
2018-07-22T09:16:33.441Z,238.62
2018-07-22T09:19:04.770Z,235.55
2018-07-22T09:21:35.848Z,232.25
2018-07-22T09:24:07.616Z,223.45
2018-07-22T09:26:38.594Z,229.03
2018-07-22T09:29:09.619Z,226.85
2018-07-22T09:31:40.652Z,231.63
2018-07-22T09:34:11.775Z,237.05
2018-07-22T09:36:57.530Z,239.05
2018-07-22T09:39:32.070Z,231.43
2018-07-22T09:42:09.138Z,226.25
2018-07-22T09:44:52.716Z,222.52
2018-07-22T09:47:37.969Z,237.60
2018-07-22T09:50:20.805Z,229.28
2018-07-22T09:52:56.765Z,229.32
2018-07-22T09:55:35.330Z,249.73
2018-07-22T09:58:12.437Z,236.30
2018-07-22T10:00:51.672Z,238.00
2018-07-22T10:03:27.748Z,232.83
2018-07-22T10:06:05.716Z,232.50
2018-07-22T10:08:45.308Z,230.10
2018-07-22T10:11:20.479Z,230.07
2018-07-22T10:13:56.736Z,221.43
2018-07-22T10:16:34.185Z,226.98
2018-07-22T10:19:08.336Z,220.37
2018-07-22T10:21:41.703Z,232.67
2018-07-22T10:24:16.623Z,227.43
2018-07-22T10:26:50.936Z,222.73
2018-07-22T10:29:27.769Z,229.32
2018-07-22T10:32:03.284Z,222.00
2018-07-22T10:34:37.537Z,226.27
2018-07-22T10:37:12.523Z,230.27
2018-07-22T10:39:44.087Z,224.52
2018-07-22T10:42:15.177Z,238.85
2018-07-22T10:44:46.366Z,229.90
2018-07-22T10:47:17.759Z,232.80
2018-07-22T10:49:48.778Z,233.45
2018-07-22T10:52:20.296Z,238.50
2018-07-22T10:54:51.598Z,241.78
2018-07-22T10:57:22.620Z,238.80
2018-07-22T10:59:53.753Z,247.85
2018-07-22T11:02:24.811Z,238.68
2018-07-22T11:04:55.859Z,230.98
2018-07-22T11:07:28.902Z,241.30
2018-07-22T11:10:00.201Z,234.65
2018-07-22T11:12:31.330Z,225.97
2018-07-22T11:15:03.105Z,231.53
2018-07-22T11:17:34.473Z,231.68
2018-07-22T11:20:05.689Z,238.90
2018-07-22T11:22:36.693Z,233.35
2018-07-22T11:25:07.815Z,236.20
2018-07-22T11:27:38.647Z,236.75
2018-07-22T11:30:09.614Z,232.72
2018-07-22T11:32:40.580Z,236.57
2018-07-22T11:35:16.587Z,245.82
2018-07-22T11:37:47.971Z,244.07
2018-07-22T11:40:19.193Z,238.22
2018-07-22T11:43:04.495Z,238.00
2018-07-22T11:45:37.703Z,228.58
2018-07-22T11:48:09.930Z,230.65
2018-07-22T11:50:49.051Z,248.60
2018-07-22T11:53:20.621Z,227.18
2018-07-22T11:55:51.532Z,242.57
2018-07-22T11:58:25.041Z,242.47
2018-07-22T12:00:56.051Z,243.88
2018-07-22T12:03:27.207Z,248.13
2018-07-22T12:05:58.294Z,240.68
2018-07-22T12:08:29.443Z,241.55
2018-07-22T12:11:01.623Z,248.95
2018-07-22T12:13:32.606Z,245.80
2018-07-22T12:16:03.775Z,242.10
2018-07-22T12:18:34.949Z,246.13
2018-07-22T12:21:05.836Z,246.50
2018-07-22T12:23:36.705Z,241.48
2018-07-22T12:26:08.685Z,237.82
2018-07-22T12:28:43.697Z,235.63
2018-07-22T12:31:15.431Z,225.68
2018-07-22T12:33:53.440Z,234.40
2018-07-22T12:36:25.348Z,238.25
2018-07-22T12:38:56.392Z,236.97
2018-07-22T12:41:27.575Z,227.72
2018-07-22T12:43:58.876Z,240.70
2018-07-22T12:46:33.236Z,245.37
2018-07-22T12:49:04.495Z,253.88
2018-07-22T12:51:35.775Z,244.47
2018-07-22T12:54:06.736Z,243.33
2018-07-22T12:56:37.713Z,247.48
2018-07-22T12:59:08.746Z,245.42
2018-07-22T13:01:39.726Z,250.72
2018-07-22T13:04:10.890Z,243.95
2018-07-22T13:06:42.189Z,242.32
2018-07-22T13:09:13.730Z,246.77
2018-07-22T13:11:44.843Z,236.80
2018-07-22T13:14:15.847Z,250.43
2018-07-22T13:16:47.056Z,245.30
2018-07-22T13:19:19.646Z,245.45
2018-07-22T13:21:51.133Z,234.87
2018-07-22T13:24:23.273Z,251.50
2018-07-22T13:26:56.164Z,246.32
2018-07-22T13:29:27.295Z,246.32
2018-07-22T13:31:58.940Z,251.30
2018-07-22T13:34:30.119Z,243.17
2018-07-22T13:37:01.450Z,252.87
2018-07-22T13:39:32.532Z,273.05
2018-07-22T13:42:04.615Z,261.43
2018-07-22T13:44:35.547Z,267.05
2018-07-22T13:47:06.810Z,279.68
2018-07-22T13:49:37.928Z,271.68
2018-07-22T13:52:08.974Z,267.30
2018-07-22T13:54:39.977Z,259.35
2018-07-22T13:57:11.079Z,266.52
2018-07-22T13:59:42.309Z,257.25
2018-07-22T14:02:13.858Z,248.93
2018-07-22T14:04:47.455Z,259.83
2018-07-22T14:07:18.654Z,274.77
2018-07-22T14:09:49.767Z,263.48
2018-07-22T14:12:21.094Z,277.95
2018-07-22T14:14:53.076Z,281.00
2018-07-22T14:17:24.342Z,277.62
2018-07-22T14:19:55.759Z,275.40
2018-07-22T14:22:26.935Z,286.87
2018-07-22T14:24:58.194Z,299.10
2018-07-22T14:27:29.275Z,284.80
2018-07-22T14:30:00.398Z,290.07
2018-07-22T14:32:31.977Z,309.77
2018-07-22T14:35:04.211Z,313.45
2018-07-22T14:37:35.740Z,304.10
2018-07-22T14:40:07.659Z,297.40
2018-07-22T14:42:39.303Z,286.02
2018-07-22T14:45:14.706Z,279.43
2018-07-22T14:47:45.783Z,296.00
2018-07-22T14:50:19.599Z,286.18
2018-07-22T14:52:50.569Z,282.68
2018-07-22T14:55:23.881Z,282.75
2018-07-22T14:57:55.419Z,274.35
2018-07-22T15:00:26.732Z,278.02
2018-07-22T15:02:57.976Z,274.73
2018-07-22T15:05:29.189Z,313.77
2018-07-22T15:08:00.730Z,288.68
2018-07-22T15:10:33.545Z,278.27
2018-07-22T15:13:05.173Z,295.42
2018-07-22T15:15:39.631Z,266.95
2018-07-22T15:18:11.465Z,266.38
2018-07-22T15:20:42.543Z,264.12
2018-07-22T15:23:13.827Z,279.07
2018-07-22T15:25:44.954Z,278.37
2018-07-22T15:28:16.509Z,256.15
2018-07-22T15:30:47.785Z,266.38
2018-07-22T15:33:21.209Z,263.50
2018-07-22T15:35:52.246Z,288.25
2018-07-22T15:38:23.729Z,285.13
2018-07-22T15:40:54.703Z,275.27
2018-07-22T15:43:26.052Z,276.75
2018-07-22T15:51:29.190Z,265.87
2018-07-22T15:54:00.501Z,249.35
2018-07-22T15:56:32.012Z,291.10
2018-07-22T15:59:03.836Z,273.00
2018-07-22T16:01:34.985Z,275.02
2018-07-22T16:04:06.253Z,268.12
2018-07-22T16:06:37.535Z,274.27
2018-07-22T16:09:11.059Z,263.65
2018-07-22T16:11:43.279Z,257.12
2018-07-22T16:14:14.294Z,260.02
2018-07-22T16:16:45.339Z,276.45
2018-07-22T16:19:16.612Z,262.77
2018-07-22T16:21:47.739Z,267.25
2018-07-22T16:24:19.007Z,263.37
2018-07-22T16:26:50.450Z,257.77
2018-07-22T16:29:22.105Z,279.68
2018-07-22T16:31:53.408Z,259.77
2018-07-22T16:34:24.661Z,272.75
2018-07-22T16:36:56.078Z,269.48
2018-07-22T16:39:27.123Z,262.38
2018-07-22T16:41:58.344Z,280.02
2018-07-22T16:44:29.695Z,265.50
2018-07-22T16:47:01.634Z,251.65
2018-07-22T16:49:33.270Z,279.52
2018-07-22T16:52:06.071Z,271.30
2018-07-22T16:54:37.448Z,272.80
2018-07-22T16:57:11.573Z,267.62
2018-07-22T16:59:42.764Z,270.50
2018-07-22T17:02:14.258Z,263.80
2018-07-22T17:04:45.636Z,255.12
2018-07-22T17:07:16.919Z,262.00
2018-07-22T17:09:48.257Z,277.45
2018-07-22T17:12:19.511Z,272.60
2018-07-22T17:14:50.300Z,251.30
2018-07-22T17:17:21.450Z,242.62
2018-07-22T17:19:52.460Z,262.32
2018-07-22T17:22:23.580Z,241.75
2018-07-22T17:24:54.773Z,254.85
2018-07-22T17:27:26.076Z,237.60
2018-07-22T17:29:57.199Z,258.85
2018-07-22T17:32:28.303Z,261.32
2018-07-22T17:35:00.004Z,252.87
2018-07-22T17:37:31.788Z,247.55
2018-07-22T17:40:05.240Z,252.05
2018-07-22T17:42:36.896Z,256.32
2018-07-22T17:45:08.280Z,248.18
2018-07-22T17:47:39.381Z,250.65
2018-07-22T17:50:10.809Z,257.95
2018-07-22T17:52:41.823Z,267.73
2018-07-22T17:55:12.873Z,249.62
2018-07-22T17:57:43.876Z,260.00
2018-07-22T18:00:15.107Z,253.58
2018-07-22T18:02:50.222Z,258.38
2018-07-22T18:05:20.984Z,246.50
2018-07-22T18:07:52.085Z,249.15
2018-07-22T18:10:27.121Z,262.38
2018-07-22T18:12:58.408Z,252.62
2018-07-22T18:15:32.997Z,255.07
2018-07-22T18:18:06.136Z,247.78
2018-07-22T18:20:38.307Z,248.03
2018-07-22T18:23:10.489Z,253.40
2018-07-22T18:25:44.416Z,241.73
2018-07-22T18:28:16.762Z,255.15
2018-07-22T18:30:48.384Z,252.72
2018-07-22T18:33:19.838Z,252.75
2018-07-22T18:35:51.947Z,271.00
2018-07-22T18:38:23.728Z,278.70
2018-07-22T18:40:55.847Z,271.90
2018-07-22T18:43:27.211Z,271.82
2018-07-22T18:45:59.148Z,264.15
2018-07-22T18:48:31.388Z,263.82
2018-07-22T18:51:03.218Z,257.85
2018-07-22T18:53:34.620Z,260.20
2018-07-22T18:56:07.612Z,242.77
2018-07-22T18:58:41.548Z,250.60
2018-07-22T19:01:17.259Z,257.95
2018-07-22T19:03:49.522Z,260.48
2018-07-22T19:06:22.003Z,253.18
2018-07-22T19:08:55.480Z,250.28
2018-07-22T19:11:28.156Z,245.02
2018-07-22T19:14:02.810Z,249.52
2018-07-22T19:16:34.318Z,260.60
2018-07-22T19:19:05.397Z,256.00
2018-07-22T19:21:36.864Z,258.10
2018-07-22T19:24:08.272Z,242.87
2018-07-22T19:26:40.622Z,232.27
2018-07-22T19:29:11.639Z,234.05
2018-07-22T19:31:42.943Z,229.80
2018-07-22T19:34:14.281Z,248.07
2018-07-22T19:36:45.367Z,249.37
2018-07-22T19:39:16.914Z,246.62
2018-07-22T19:41:48.973Z,247.75
2018-07-22T19:44:20.026Z,239.88
2018-07-22T19:46:51.345Z,243.65
2018-07-22T19:49:24.590Z,252.35
2018-07-22T19:51:57.036Z,258.60
2018-07-22T19:54:28.625Z,257.20
2018-07-22T19:56:59.669Z,258.00
2018-07-22T19:59:31.045Z,256.68
2018-07-22T20:02:02.976Z,235.55
2018-07-22T20:04:34.058Z,250.97
2018-07-22T20:07:06.158Z,237.85
2018-07-22T20:09:37.854Z,243.42
2018-07-22T20:12:09.460Z,260.95
2018-07-22T20:14:41.331Z,256.15
2018-07-22T20:17:14.141Z,235.28
2018-07-22T20:19:46.216Z,238.97
2018-07-22T20:22:17.472Z,228.32
2018-07-22T20:24:48.868Z,225.38
2018-07-22T20:27:19.971Z,229.35
2018-07-22T20:29:51.102Z,239.65
2018-07-22T20:32:23.075Z,230.62
2018-07-22T20:34:54.746Z,238.45
2018-07-22T20:37:27.630Z,232.67
2018-07-22T20:39:58.769Z,221.07
2018-07-22T20:42:30.216Z,240.82
2018-07-22T20:45:01.998Z,231.82
2018-07-22T20:47:33.652Z,232.55
2018-07-22T20:50:05.148Z,226.35
2018-07-22T20:52:37.112Z,228.47
2018-07-22T20:55:08.301Z,229.50
2018-07-22T20:57:39.336Z,234.70
2018-07-22T21:00:10.568Z,232.15
2018-07-22T21:02:42.060Z,234.90
2018-07-22T21:05:13.173Z,233.82
2018-07-22T21:07:44.369Z,237.32
2018-07-22T21:10:15.554Z,237.32
2018-07-22T21:12:57.321Z,232.07
2018-07-22T21:15:37.719Z,240.12
2018-07-22T21:18:10.623Z,220.63
2018-07-22T21:20:44.453Z,225.45
2018-07-22T21:23:15.661Z,230.10
2018-07-22T21:25:47.135Z,220.30
2018-07-22T21:28:18.424Z,227.28
2018-07-22T21:30:50.490Z,237.78
2018-07-22T21:33:22.060Z,223.05
2018-07-22T21:35:53.199Z,227.75
2018-07-22T21:38:24.454Z,227.57
2018-07-22T21:40:55.872Z,225.35
2018-07-22T21:43:27.041Z,221.82
2018-07-22T21:45:58.185Z,225.68
2018-07-22T21:48:29.290Z,227.18
2018-07-22T21:51:00.451Z,217.85
2018-07-22T21:53:34.162Z,225.45
2018-07-22T21:56:07.519Z,228.12
2018-07-22T21:58:38.991Z,220.52
2018-07-22T22:01:10.278Z,230.25
2018-07-22T22:03:41.587Z,230.40
2018-07-22T22:06:12.773Z,228.22
2018-07-22T22:08:43.752Z,229.63
2018-07-22T22:11:14.801Z,229.78
2018-07-22T22:13:49.704Z,231.80
2018-07-22T22:16:21.815Z,230.52
2018-07-22T22:18:52.823Z,224.18
2018-07-22T22:21:25.048Z,232.43
2018-07-22T22:23:56.040Z,229.07
2018-07-22T22:26:27.404Z,230.92
2018-07-22T22:28:58.444Z,231.35
2018-07-22T22:31:29.526Z,229.35
2018-07-22T22:34:00.652Z,233.23
2018-07-22T22:36:31.799Z,233.00
2018-07-22T22:39:02.933Z,229.53
2018-07-22T22:41:33.984Z,228.15
2018-07-22T22:44:04.949Z,238.25
2018-07-22T22:46:36.272Z,222.10
2018-07-22T22:49:07.507Z,225.32
2018-07-22T22:51:38.444Z,232.72
2018-07-22T22:54:09.483Z,233.43
2018-07-22T22:56:40.996Z,226.65
2018-07-22T22:59:20.866Z,228.75
2018-07-22T23:01:52.004Z,232.03
2018-07-22T23:04:23.310Z,233.13
2018-07-22T23:06:54.375Z,232.25
2018-07-22T23:09:25.679Z,231.93
2018-07-22T23:11:57.203Z,230.95
2018-07-22T23:14:28.254Z,228.42
2018-07-22T23:16:59.588Z,228.80
2018-07-22T23:19:30.658Z,228.80
2018-07-22T23:22:03.429Z,229.75
2018-07-22T23:24:34.479Z,230.43
2018-07-22T23:27:05.583Z,237.25
2018-07-22T23:29:36.541Z,223.38
2018-07-22T23:32:09.621Z,230.87
2018-07-22T23:34:41.593Z,231.65
2018-07-22T23:37:19.267Z,224.80
2018-07-22T23:40:04.217Z,228.07
2018-07-22T23:42:42.397Z,217.95
2018-07-22T23:45:23.106Z,218.27
2018-07-22T23:47:59.159Z,226.58
2018-07-22T23:50:35.543Z,225.00
2018-07-22T23:53:14.711Z,235.40
2018-07-22T23:55:54.133Z,232.47
2018-07-22T23:58:26.171Z,231.95
